Owensville, IN

4:30 PM CDT on August 24, 2016 (GMT -0500)
Rural Princeton | | Change Station

Elev 436 ft 38.30 °N, 87.59 °W | Updated 4 minutes ago

Scattered Clouds
Scattered Clouds
89.8 °F
Feels Like 104 °F
N
6.0
Wind Variable Wind from WSW
Gusts 8.0 mph

Today
High -- | Low -- °F
--% Chance of Precip.
Yesterday
High -- | Low -- °F
Precip. -- in
Pressure 30.04 in
Visibility 10.0 miles
Clouds Scattered Clouds 4400 ft
Heat Index 104 °F
Dew Point 78 °F
Humidity 68%
Rainfall 0.00 in
Snow Depth Not available.
6:13 AM 7:31 PM
Waning Gibbous, 53% visible
METAR KEVV 242054Z 22014KT 10SM SCT044 32/23 A3006 RMK AO2 SLP173 T03220233 57013
Pressure 30.04 in
Visibility 10.0 miles
Clouds Scattered Clouds 4400 ft
Heat Index 104 °F
Dew Point 78 °F
Humidity 68%
Rainfall 0.00 in
Snow Depth Not available.
6:13 AM 7:31 PM
Waning Gibbous, 53% visible
METAR KEVV 242054Z 22014KT 10SM SCT044 32/23 A3006 RMK AO2 SLP173 T03220233 57013

10-Day Weather Forecast

Almanac

Astronomy

Aug. 24, 2016 Rise Set
Actual Time
Civil Twilight
Nautical Twilight
Astronomical Twilight
Moon
Length of Visible Light
Length of Day
Tomorrow will be .
, % of the Moon is Illuminated

Today's Extremes

State Highs State Lows

Community

WunderPhotos

Upload Photos

1,934,719 photos uploaded!

WunderBlog® & News

Nearby

Air Quality

  Air Quality AQ Index Pollutant
Not available.

Snow Depth

Station Depth Elevation

Earthquake Activity

City Distance Mag. Time & Date
Minimum magnitude displayed is 2.5.

Coastal Water Temperatures

Place Temperature

Stations

Nearby Weather Stations

Station Location Temp. Windchill Dew Point Humidity Wind Precip. Elev Updated Type
                   

Watches & Warnings

There are currently no watches in effect.